Time;durP1;ratioP1;P1;durP2;ratioP2;P2;SDS_P1;SDS_P2;PMS_P1;PMS_P2;Temp;Humidity;BMP_temperature;BMP_pressure;BME280_temperature;BME280_humidity;BME280_pressure;Samples;Min_cycle;Max_cycle;Signal;HPM_P1;HPM_P2
2023/11/25 00:01:35;;;;;;;0.90;0.90;;;1.70;99.90;;;;;;4964540;28;20893;-31
2023/11/25 00:04:00;;;;;;;1.35;1.10;;;1.70;99.90;;;;;;4958938;28;20102;-32
2023/11/25 00:06:27;;;;;;;1.48;1.30;;;1.70;99.90;;;;;;4964725;28;20019;-34
2023/11/25 00:08:53;;;;;;;1.63;1.23;;;1.70;99.90;;;;;;4966987;28;20034;-32
2023/11/25 00:11:18;;;;;;;0.98;0.98;;;1.70;99.90;;;;;;4966715;28;20558;-34
2023/11/25 00:13:44;;;;;;;1.77;1.67;;;1.70;99.90;;;;;;4965864;28;20070;-31
2023/11/25 00:16:10;;;;;;;1.20;1.20;;;1.70;99.90;;;;;;4968478;28;20038;-32
2023/11/25 00:18:35;;;;;;;1.08;1.08;;;1.80;99.90;;;;;;4965927;28;20051;-31
2023/11/25 00:21:01;;;;;;;1.40;1.30;;;1.80;99.90;;;;;;4964571;28;20130;-34
2023/11/25 00:23:27;;;;;;;3.75;1.13;;;1.80;99.90;;;;;;4970702;28;20023;-32
2023/11/25 00:25:54;;;;;;;1.20;1.10;;;1.80;99.90;;;;;;4970180;28;20357;-31
2023/11/25 00:28:20;;;;;;;1.20;1.20;;;1.80;99.90;;;;;;4969178;28;20118;-33
2023/11/25 00:30:46;;;;;;;1.70;1.13;;;1.80;99.90;;;;;;4964997;28;20113;-31
2023/11/25 00:33:13;;;;;;;1.08;1.08;;;1.80;99.90;;;;;;4967417;28;20034;-31
2023/11/25 00:35:40;;;;;;;2.10;1.10;;;1.60;99.90;;;;;;4967302;28;20687;-35
2023/11/25 00:38:08;;;;;;;1.33;1.10;;;1.50;99.90;;;;;;4960513;28;20105;-31
2023/11/25 00:40:34;;;;;;;1.00;1.00;;;1.40;99.90;;;;;;4968566;28;20027;-32
2023/11/25 00:43:00;;;;;;;1.27;1.17;;;1.40;99.90;;;;;;4969203;28;20062;-34
2023/11/25 00:45:26;;;;;;;1.10;1.00;;;1.30;99.90;;;;;;4968831;28;20124;-31
2023/11/25 00:47:52;;;;;;;1.00;1.00;;;1.30;99.90;;;;;;4968891;28;20043;-31
2023/11/25 00:50:19;;;;;;;0.80;0.80;;;1.30;99.90;;;;;;4968561;28;20037;-35
2023/11/25 00:52:45;;;;;;;1.00;1.00;;;1.20;99.90;;;;;;4968824;28;20034;-32
2023/11/25 00:55:11;;;;;;;1.02;1.02;;;1.30;99.90;;;;;;4969319;28;20425;-32
2023/11/25 00:57:37;;;;;;;1.17;0.95;;;1.30;99.90;;;;;;4969723;28;20042;-31
2023/11/25 01:00:12;;;;;;;1.08;1.08;;;1.30;99.90;;;;;;4969660;28;20033;-32
2023/11/25 01:02:38;;;;;;;1.25;1.25;;;1.30;99.90;;;;;;4966835;28;20041;-32
2023/11/25 01:05:04;;;;;;;1.27;1.17;;;1.40;99.90;;;;;;4969941;28;20102;-31
2023/11/25 01:07:30;;;;;;;1.83;1.23;;;1.30;99.90;;;;;;4971228;28;20121;-37
2023/11/25 01:09:55;;;;;;;1.42;1.20;;;1.40;99.90;;;;;;4967855;28;20074;-39
2023/11/25 01:12:21;;;;;;;1.83;1.38;;;1.40;99.90;;;;;;4968861;28;20618;-38
2023/11/25 01:14:46;;;;;;;1.30;1.30;;;1.40;99.90;;;;;;4968659;28;20134;-35
2023/11/25 01:17:12;;;;;;;0.85;0.85;;;1.40;99.90;;;;;;4967949;28;20764;-39
2023/11/25 01:19:38;;;;;;;1.15;1.15;;;1.40;99.90;;;;;;4968323;28;20528;-37
2023/11/25 01:22:04;;;;;;;1.30;1.20;;;1.40;99.90;;;;;;4968252;28;20311;-39
2023/11/25 01:24:29;;;;;;;1.20;1.10;;;1.40;99.90;;;;;;4969180;28;20031;-36
2023/11/25 01:26:55;;;;;;;1.30;1.20;;;1.40;99.90;;;;;;4968695;28;20089;-38
2023/11/25 01:29:22;;;;;;;1.75;1.17;;;1.40;99.90;;;;;;4967178;28;20037;-39
2023/11/25 01:31:48;;;;;;;1.00;1.00;;;1.40;99.90;;;;;;4967423;28;20512;-35
2023/11/25 01:34:13;;;;;;;0.98;0.98;;;1.40;99.90;;;;;;4967672;28;20019;-36
2023/11/25 01:36:39;;;;;;;1.20;1.15;;;1.40;99.90;;;;;;4967505;28;20046;-36
2023/11/25 01:39:08;;;;;;;1.10;1.10;;;1.40;99.90;;;;;;4968123;28;20038;-32
2023/11/25 01:41:33;;;;;;;1.10;1.10;;;1.40;99.90;;;;;;4967167;28;20117;-37
2023/11/25 01:44:00;;;;;;;1.17;1.17;;;1.40;99.90;;;;;;4968193;28;20190;-31
2023/11/25 01:46:39;;;;;;;1.55;1.10;;;1.40;99.90;;;;;;4969019;28;20412;-31
2023/11/25 01:49:07;;;;;;;0.90;0.90;;;1.40;99.90;;;;;;4964766;28;20130;-37
2023/11/25 01:51:35;;;;;;;2.00;1.38;;;1.50;99.90;;;;;;4968356;28;20031;-34
2023/11/25 01:54:02;;;;;;;1.03;1.03;;;1.50;99.90;;;;;;4969089;28;20046;-40
2023/11/25 01:56:28;;;;;;;1.45;1.35;;;1.50;99.90;;;;;;4967284;28;20027;-40
2023/11/25 01:58:56;;;;;;;1.10;1.00;;;1.50;99.90;;;;;;4966522;28;20027;-40
2023/11/25 02:01:24;;;;;;;0.90;0.90;;;1.40;99.90;;;;;;4965849;28;20035;-41
2023/11/25 02:03:49;;;;;;;1.08;1.00;;;1.40;99.90;;;;;;4968197;28;20082;-37
2023/11/25 02:06:15;;;;;;;0.80;0.80;;;1.40;99.90;;;;;;4968922;28;20034;-40
2023/11/25 02:08:43;;;;;;;1.40;1.15;;;1.40;99.90;;;;;;4968432;28;20441;-37
2023/11/25 02:11:08;;;;;;;0.90;0.90;;;1.40;99.90;;;;;;4963537;28;20034;-37
2023/11/25 02:13:34;;;;;;;0.88;0.88;;;1.30;99.90;;;;;;4967317;28;20086;-41
2023/11/25 02:16:00;;;;;;;0.93;0.93;;;1.30;99.90;;;;;;4970019;28;20042;-42
2023/11/25 02:18:25;;;;;;;1.10;1.10;;;1.40;99.90;;;;;;4967942;28;20038;-41
2023/11/25 02:20:51;;;;;;;1.83;1.10;;;1.30;99.90;;;;;;4966870;28;20045;-41
2023/11/25 02:23:19;;;;;;;0.98;0.98;;;1.30;99.90;;;;;;4968157;28;20031;-40
2023/11/25 02:25:47;;;;;;;1.90;1.07;;;1.30;99.90;;;;;;4966446;28;20552;-38
2023/11/25 02:28:14;;;;;;;1.08;0.98;;;1.30;99.90;;;;;;4967902;28;20372;-41
2023/11/25 02:30:39;;;;;;;0.93;0.93;;;1.20;99.90;;;;;;4967767;28;20093;-40
2023/11/25 02:33:07;;;;;;;0.90;0.90;;;1.20;99.90;;;;;;4966976;28;20644;-39
2023/11/25 02:35:33;;;;;;;0.80;0.80;;;1.20;99.90;;;;;;4949773;28;20567;-38
2023/11/25 02:37:59;;;;;;;0.93;0.93;;;1.20;99.90;;;;;;4971670;28;20129;-40
2023/11/25 02:40:24;;;;;;;0.93;0.93;;;1.20;99.90;;;;;;4967658;28;20027;-41
2023/11/25 02:42:50;;;;;;;0.90;0.90;;;1.10;99.90;;;;;;4968621;28;21035;-41
2023/11/25 02:45:23;;;;;;;2.30;1.38;;;1.10;99.90;;;;;;4964440;28;20030;-41
2023/11/25 02:47:50;;;;;;;1.10;1.10;;;1.00;99.90;;;;;;4969603;28;20027;-41
2023/11/25 02:50:17;;;;;;;1.15;1.13;;;0.90;99.90;;;;;;4967572;28;20081;-42
2023/11/25 02:52:43;;;;;;;1.00;1.00;;;1.00;99.90;;;;;;4968202;28;20023;-41
2023/11/25 02:55:10;;;;;;;1.00;1.00;;;0.90;99.90;;;;;;4967467;28;20027;-40
2023/11/25 02:57:43;;;;;;;1.00;1.00;;;0.90;99.90;;;;;;4967339;28;20027;-32
2023/11/25 03:00:28;;;;;;;2.10;1.10;;;0.90;99.90;;;;;;4965069;28;20062;-36
2023/11/25 03:03:00;;;;;;;0.80;0.80;;;0.90;99.90;;;;;;4966090;28;20038;-32
2023/11/25 03:05:27;;;;;;;1.00;1.00;;;0.90;99.90;;;;;;4967860;28;20050;-32
2023/11/25 03:07:56;;;;;;;2.05;1.23;;;0.90;99.90;;;;;;4966463;28;20618;-32
2023/11/25 03:10:23;;;;;;;1.52;1.13;;;0.90;99.90;;;;;;4968322;28;20066;-33
2023/11/25 03:12:48;;;;;;;1.10;1.10;;;0.90;99.90;;;;;;4953188;28;20073;-34
2023/11/25 03:15:14;;;;;;;2.20;1.00;;;0.90;99.90;;;;;;4971755;28;20500;-32
2023/11/25 03:17:40;;;;;;;1.50;0.90;;;0.90;99.90;;;;;;4970030;28;20155;-31
2023/11/25 03:20:09;;;;;;;1.45;1.45;;;0.90;99.90;;;;;;4965386;28;20035;-32
2023/11/25 03:22:34;;;;;;;;;;;0.90;99.90;;;;;;4971049;28;20103;-32
2023/11/25 03:25:01;;;;;;;1.35;1.10;;;0.90;99.90;;;;;;4971119;28;20008;-32
2023/11/25 03:27:28;;;;;;;0.77;0.77;;;0.90;99.90;;;;;;4971645;28;20038;-39
2023/11/25 03:29:54;;;;;;;1.00;1.00;;;0.90;99.90;;;;;;4969563;28;20063;-38
2023/11/25 03:32:20;;;;;;;1.80;1.10;;;0.90;99.90;;;;;;4970760;28;20042;-40
2023/11/25 03:34:46;;;;;;;1.10;1.10;;;0.90;99.90;;;;;;4971637;28;20138;-38
2023/11/25 03:37:12;;;;;;;1.00;1.00;;;0.80;99.90;;;;;;4969980;28;20058;-39
2023/11/25 03:39:37;;;;;;;1.10;1.10;;;0.80;99.90;;;;;;4952208;28;20077;-40
2023/11/25 03:42:06;;;;;;;1.05;0.95;;;0.80;99.90;;;;;;4970856;28;20022;-39
2023/11/25 03:44:32;;;;;;;1.63;1.10;;;0.70;99.90;;;;;;4968691;28;20030;-38
2023/11/25 03:46:57;;;;;;;2.38;1.00;;;0.70;99.90;;;;;;4969423;28;20023;-37
2023/11/25 03:49:24;;;;;;;1.55;1.45;;;0.70;99.90;;;;;;4971189;28;20652;-38
2023/11/25 03:51:50;;;;;;;1.10;1.10;;;0.60;99.90;;;;;;4970062;28;20030;-37
2023/11/25 03:54:15;;;;;;;0.93;0.90;;;0.60;99.90;;;;;;4969635;28;20117;-38
2023/11/25 03:56:41;;;;;;;1.60;1.20;;;0.50;99.90;;;;;;4970686;28;20030;-37
2023/11/25 03:59:08;;;;;;;0.98;0.98;;;0.60;99.90;;;;;;4969387;28;20489;-38
2023/11/25 04:01:34;;;;;;;0.90;0.90;;;0.50;99.90;;;;;;4969449;28;20034;-36
2023/11/25 04:04:01;;;;;;;1.48;1.17;;;0.50;99.90;;;;;;4969698;28;20038;-39
2023/11/25 04:06:27;;;;;;;1.08;1.08;;;0.50;99.90;;;;;;4970223;28;20468;-36
2023/11/25 04:08:52;;;;;;;1.10;1.10;;;0.50;99.90;;;;;;4969021;28;20084;-42
2023/11/25 04:11:18;;;;;;;1.10;1.10;;;0.50;99.90;;;;;;4968850;28;20092;-40
2023/11/25 04:13:44;;;;;;;1.05;0.90;;;0.50;99.90;;;;;;4969321;28;20043;-40
2023/11/25 04:16:09;;;;;;;2.70;1.00;;;0.50;99.90;;;;;;4970228;28;20492;-41
2023/11/25 04:18:37;;;;;;;1.25;1.17;;;0.50;99.90;;;;;;4968716;28;20035;-42
2023/11/25 04:21:04;;;;;;;1.27;1.25;;;0.40;99.90;;;;;;4970373;28;20023;-41
2023/11/25 04:23:30;;;;;;;0.80;0.80;;;0.40;99.90;;;;;;4969865;28;20373;-34
2023/11/25 04:25:56;;;;;;;0.77;0.77;;;0.30;99.90;;;;;;4969076;28;20038;-42
2023/11/25 04:28:21;;;;;;;0.80;0.80;;;0.30;99.90;;;;;;4970460;28;20035;-40
2023/11/25 04:30:47;;;;;;;1.10;1.00;;;0.30;99.90;;;;;;4968027;28;20054;-34
2023/11/25 04:33:14;;;;;;;0.90;0.90;;;0.30;99.90;;;;;;4970433;28;20169;-42
2023/11/25 04:35:40;;;;;;;0.80;0.80;;;0.30;99.90;;;;;;4968838;28;20074;-41
2023/11/25 04:38:06;;;;;;;1.10;1.10;;;0.30;99.90;;;;;;4970444;28;20748;-34
2023/11/25 04:40:31;;;;;;;1.20;1.20;;;0.30;99.90;;;;;;4969366;28;20055;-37
2023/11/25 04:42:58;;;;;;;3.28;1.17;;;0.30;99.90;;;;;;4969610;28;20503;-34
2023/11/25 04:45:25;;;;;;;1.05;1.00;;;0.30;99.90;;;;;;4969895;28;20023;-34
2023/11/25 04:47:51;;;;;;;0.98;0.98;;;0.30;99.90;;;;;;4970460;28;20050;-33
2023/11/25 04:50:18;;;;;;;1.50;1.00;;;0.20;99.90;;;;;;4970196;28;20039;-32
2023/11/25 04:52:44;;;;;;;0.90;0.90;;;0.20;99.90;;;;;;4968860;28;20524;-32
2023/11/25 04:55:12;;;;;;;2.40;1.02;;;0.20;99.90;;;;;;4968954;28;20121;-33
2023/11/25 04:57:37;;;;;;;1.73;0.95;;;0.20;99.90;;;;;;4969598;28;20040;-33
2023/11/25 05:00:09;;;;;;;2.47;1.10;;;0.10;99.90;;;;;;4968021;28;20763;-33
2023/11/25 05:02:36;;;;;;;0.90;0.90;;;0.10;99.90;;;;;;4967915;28;20035;-35
2023/11/25 05:05:03;;;;;;;1.05;0.98;;;0.10;99.90;;;;;;4968388;28;20023;-32
2023/11/25 05:07:29;;;;;;;0.93;0.93;;;0.10;99.90;;;;;;4968487;28;20535;-35
2023/11/25 05:09:55;;;;;;;0.90;0.90;;;0.10;99.90;;;;;;4968809;28;20034;-33
2023/11/25 05:12:20;;;;;;;1.48;0.93;;;0.20;99.90;;;;;;4969256;28;20035;-35
2023/11/25 05:14:46;;;;;;;0.95;0.95;;;0.10;99.90;;;;;;4968799;28;20547;-33
2023/11/25 05:17:12;;;;;;;2.33;1.00;;;0.10;99.90;;;;;;4965765;28;20098;-33
2023/11/25 05:19:37;;;;;;;1.73;1.23;;;0.20;99.90;;;;;;4967921;28;20069;-32
2023/11/25 05:22:04;;;;;;;0.90;0.90;;;0.30;99.90;;;;;;4969047;28;20050;-32
2023/11/25 05:24:30;;;;;;;1.52;1.00;;;0.30;99.90;;;;;;4968228;28;20058;-35
2023/11/25 05:26:56;;;;;;;1.00;1.00;;;0.30;99.90;;;;;;4969121;28;20066;-31
2023/11/25 05:29:21;;;;;;;1.70;1.60;;;0.30;99.90;;;;;;4964818;28;20054;-31
2023/11/25 05:31:47;;;;;;;0.90;0.85;;;0.20;99.90;;;;;;4966314;28;20047;-32
2023/11/25 05:34:13;;;;;;;1.63;1.52;;;0.20;99.90;;;;;;4966299;28;20079;-34
2023/11/25 05:36:39;;;;;;;1.15;1.13;;;0.10;99.90;;;;;;4966465;28;20621;-33
2023/11/25 05:39:12;;;;;;;0.88;0.88;;;0.10;99.90;;;;;;4968976;28;20035;-32
2023/11/25 05:41:38;;;;;;;2.03;1.15;;;0.10;99.90;;;;;;4968280;28;20062;-34
2023/11/25 05:44:07;;;;;;;0.85;0.85;;;0.10;99.90;;;;;;4966760;28;20041;-33
2023/11/25 05:46:33;;;;;;;1.73;1.10;;;0.00;99.90;;;;;;4968154;28;20447;-36
2023/11/25 05:48:59;;;;;;;1.02;1.02;;;0.00;99.90;;;;;;4969032;28;20046;-34
2023/11/25 05:51:38;;;;;;;1.38;1.23;;;-0.10;99.90;;;;;;4968897;28;20504;-33
2023/11/25 05:54:05;;;;;;;4.03;1.00;;;-0.10;99.90;;;;;;4967427;28;20030;-34
2023/11/25 05:56:31;;;;;;;1.58;1.30;;;-0.10;99.90;;;;;;4969243;28;20680;-33
2023/11/25 05:58:57;;;;;;;0.95;0.90;;;-0.10;99.90;;;;;;4968249;28;20096;-33
2023/11/25 06:01:23;;;;;;;1.95;1.20;;;-0.10;99.90;;;;;;4966142;28;20077;-32
2023/11/25 06:03:52;;;;;;;0.80;0.80;;;-0.20;99.90;;;;;;4968055;28;20073;-32
2023/11/25 06:06:20;;;;;;;0.90;0.90;;;-0.20;99.90;;;;;;4969383;28;20034;-34
2023/11/25 06:08:49;;;;;;;4.53;1.10;;;-0.20;99.90;;;;;;4962332;28;20039;-35
2023/11/25 06:11:19;;;;;;;2.72;1.30;;;-0.20;99.90;;;;;;4967842;28;20046;-32
2023/11/25 06:13:44;;;;;;;1.20;1.10;;;-0.20;99.90;;;;;;4968083;28;20081;-32
2023/11/25 06:16:10;;;;;;;0.80;0.80;;;-0.20;99.90;;;;;;4966966;28;20428;-35
2023/11/25 06:18:36;;;;;;;0.88;0.88;;;-0.20;99.90;;;;;;4966314;28;20031;-33
2023/11/25 06:21:02;;;;;;;1.00;1.00;;;-0.20;99.90;;;;;;4968454;28;20391;-32
2023/11/25 06:23:28;;;;;;;0.85;0.85;;;-0.30;99.90;;;;;;4966843;28;20515;-33
2023/11/25 06:25:54;;;;;;;0.95;0.95;;;-0.30;99.90;;;;;;4966535;28;20062;-32
2023/11/25 06:28:23;;;;;;;1.00;1.00;;;-0.30;99.90;;;;;;4969031;28;20049;-30
2023/11/25 06:30:53;;;;;;;1.05;1.05;;;-0.30;99.90;;;;;;4967425;28;20050;-30
2023/11/25 06:33:21;;;;;;;1.30;1.30;;;-0.30;99.90;;;;;;4968394;28;20425;-29
2023/11/25 06:35:47;;;;;;;1.75;1.60;;;-0.20;99.90;;;;;;4967806;28;20078;-34
2023/11/25 06:38:13;;;;;;;4.60;1.30;;;-0.20;99.90;;;;;;4968893;28;20033;-42
2023/11/25 06:40:40;;;;;;;0.93;0.93;;;-0.20;99.90;;;;;;4967480;28;20030;-40
2023/11/25 06:43:05;;;;;;;1.10;1.10;;;-0.10;99.90;;;;;;4967521;28;20039;-40
2023/11/25 06:45:33;;;;;;;1.58;1.58;;;-0.10;99.90;;;;;;4952358;28;20074;-38
2023/11/25 06:47:58;;;;;;;1.00;1.00;;;-0.10;99.90;;;;;;4972198;28;20039;-39
2023/11/25 06:50:24;;;;;;;1.88;0.98;;;-0.10;99.90;;;;;;4970627;28;20068;-39
2023/11/25 06:52:50;;;;;;;1.60;1.10;;;-0.20;99.90;;;;;;4971084;28;20893;-41
2023/11/25 06:55:17;;;;;;;1.23;1.17;;;-0.10;99.90;;;;;;4970081;28;20397;-37
2023/11/25 06:57:43;;;;;;;1.10;1.10;;;-0.20;99.90;;;;;;4971824;28;20093;-39
2023/11/25 07:00:10;;;;;;;4.30;2.35;;;-0.20;99.90;;;;;;4967989;28;20039;-40
2023/11/25 07:02:42;;;;;;;1.60;1.50;;;-0.20;99.90;;;;;;4970917;28;20447;-41
2023/11/25 07:05:09;;;;;;;0.95;0.95;;;-0.20;99.90;;;;;;4970231;28;20062;-41
2023/11/25 07:07:35;;;;;;;1.15;1.15;;;-0.20;99.90;;;;;;4971146;28;20035;-39
2023/11/25 07:10:01;;;;;;;1.00;1.00;;;-0.20;99.90;;;;;;4970377;28;20039;-41
2023/11/25 07:12:26;;;;;;;1.30;1.17;;;-0.20;99.90;;;;;;4971876;28;20104;-42
2023/11/25 07:14:52;;;;;;;4.53;1.52;;;-0.30;99.90;;;;;;4969388;28;20031;-40
2023/11/25 07:17:18;;;;;;;1.63;1.15;;;-0.30;99.90;;;;;;4971174;28;20027;-41
2023/11/25 07:19:44;;;;;;;1.25;1.25;;;-0.20;99.90;;;;;;4971307;28;20074;-41
2023/11/25 07:22:10;;;;;;;1.52;1.08;;;-0.20;99.90;;;;;;4970986;28;20054;-40
2023/11/25 07:24:39;;;;;;;1.50;1.40;;;-0.20;99.90;;;;;;4970673;28;20464;-40
2023/11/25 07:27:10;;;;;;;1.15;1.10;;;-0.20;99.90;;;;;;4970549;28;20039;-41
2023/11/25 07:29:36;;;;;;;1.48;1.38;;;-0.20;99.90;;;;;;4966655;28;20039;-41
2023/11/25 07:32:02;;;;;;;2.03;1.65;;;-0.20;99.90;;;;;;4970607;28;20385;-39
2023/11/25 07:34:31;;;;;;;1.00;1.00;;;-0.20;99.90;;;;;;4971084;28;20023;-41
2023/11/25 07:36:58;;;;;;;1.80;1.67;;;-0.10;99.90;;;;;;4968247;28;20065;-42
2023/11/25 07:39:23;;;;;;;1.20;1.20;;;-0.10;99.90;;;;;;4969142;28;20057;-39
2023/11/25 07:41:57;;;;;;;1.60;1.50;;;0.00;99.90;;;;;;4968055;28;20031;-33
2023/11/25 07:44:23;;;;;;;1.60;1.50;;;0.00;99.90;;;;;;4971950;28;20027;-41
2023/11/25 07:46:49;;;;;;;2.10;1.00;;;0.00;99.90;;;;;;4969586;28;20033;-32
2023/11/25 07:49:16;;;;;;;2.78;1.67;;;0.00;99.90;;;;;;4969362;28;20042;-33
2023/11/25 07:51:41;;;;;;;1.10;1.10;;;0.10;99.90;;;;;;4964111;28;20035;-33
2023/11/25 07:54:11;;;;;;;1.50;1.40;;;0.10;99.90;;;;;;4962462;28;20041;-33
2023/11/25 07:56:37;;;;;;;1.58;1.48;;;0.20;99.90;;;;;;4969631;28;20034;-33
2023/11/25 07:59:03;;;;;;;1.55;1.45;;;0.20;99.90;;;;;;4967260;28;20506;-32
2023/11/25 08:01:28;;;;;;;1.85;1.00;;;0.20;99.90;;;;;;4960961;28;20066;-32
2023/11/25 08:03:54;;;;;;;4.65;1.13;;;0.30;99.90;;;;;;4968780;28;20057;-32
2023/11/25 08:06:21;;;;;;;1.17;1.08;;;0.40;99.90;;;;;;4964299;28;20023;-34
2023/11/25 08:08:46;;;;;;;1.70;1.45;;;0.30;99.90;;;;;;4968516;28;20043;-33
2023/11/25 08:11:24;;;;;;;3.60;1.10;;;0.40;99.90;;;;;;4967563;28;20026;-31
2023/11/25 08:13:50;;;;;;;1.83;1.52;;;0.50;99.90;;;;;;4968694;28;20069;-30
2023/11/25 08:16:16;;;;;;;2.05;1.77;;;0.50;99.90;;;;;;4972116;28;20039;-29
2023/11/25 08:18:41;;;;;;;1.67;1.33;;;0.50;99.90;;;;;;4958482;28;20463;-31
2023/11/25 08:21:07;;;;;;;1.13;1.00;;;0.60;99.90;;;;;;4970403;28;20102;-36
2023/11/25 08:23:33;;;;;;;2.13;1.25;;;0.60;99.90;;;;;;4966807;28;20500;-33
2023/11/25 08:25:59;;;;;;;4.70;1.50;;;0.60;99.90;;;;;;4969473;28;20093;-32
2023/11/25 08:28:25;;;;;;;2.08;1.50;;;0.60;99.90;;;;;;4969381;28;20043;-33
2023/11/25 08:30:51;;;;;;;1.38;1.27;;;0.60;99.90;;;;;;4965730;28;20551;-29
2023/11/25 08:33:17;;;;;;;2.22;1.80;;;0.60;99.90;;;;;;4967623;28;20039;-32
2023/11/25 08:35:43;;;;;;;4.97;1.45;;;0.60;99.90;;;;;;4970660;28;20566;-30
2023/11/25 08:38:09;;;;;;;1.33;1.33;;;0.70;99.90;;;;;;4970173;28;20039;-30
2023/11/25 08:40:35;;;;;;;3.00;1.10;;;0.60;99.90;;;;;;4967258;28;20508;-30
2023/11/25 08:43:08;;;;;;;1.63;1.50;;;0.60;99.90;;;;;;4968988;28;20030;-30
2023/11/25 08:45:34;;;;;;;5.00;1.67;;;0.70;99.90;;;;;;4967522;28;20059;-35
2023/11/25 08:48:00;;;;;;;1.58;1.42;;;0.70;99.90;;;;;;4970599;28;20039;-29
2023/11/25 08:50:25;;;;;;;1.48;1.33;;;0.70;99.90;;;;;;4969920;28;20027;-30
2023/11/25 08:52:51;;;;;;;3.47;1.95;;;0.70;99.90;;;;;;4968937;28;20038;-30
2023/11/25 08:55:19;;;;;;;4.03;2.10;;;0.70;99.90;;;;;;4969914;28;20090;-28
2023/11/25 08:57:45;;;;;;;3.72;1.80;;;0.70;99.90;;;;;;4972184;28;20113;-31
2023/11/25 09:00:19;;;;;;;3.45;1.48;;;0.80;99.90;;;;;;4968961;28;20027;-30
2023/11/25 09:02:48;;;;;;;1.10;1.10;;;0.80;99.90;;;;;;4965220;28;20027;-30
2023/11/25 09:05:14;;;;;;;4.90;2.30;;;0.80;99.90;;;;;;4967041;28;20054;-31
2023/11/25 09:07:43;;;;;;;0.80;0.80;;;0.80;99.90;;;;;;4958709;28;20105;-37
2023/11/25 09:10:10;;;;;;;1.70;1.60;;;0.80;99.90;;;;;;4967431;28;20433;-39
2023/11/25 09:12:40;;;;;;;1.83;1.73;;;0.80;99.90;;;;;;4968213;28;20065;-42
2023/11/25 09:15:08;;;;;;;1.40;1.35;;;0.80;99.90;;;;;;4966815;28;20386;-40
2023/11/25 09:17:38;;;;;;;2.92;2.40;;;0.80;99.90;;;;;;4964905;28;20559;-32
2023/11/25 09:20:07;;;;;;;2.08;1.88;;;0.90;99.90;;;;;;4969100;28;20118;-33
2023/11/25 09:22:33;;;;;;;1.60;1.58;;;0.90;99.90;;;;;;4966997;28;20473;-32
2023/11/25 09:24:58;;;;;;;1.30;1.27;;;0.90;99.90;;;;;;4968674;28;20038;-32
2023/11/25 09:27:24;;;;;;;2.25;2.03;;;1.00;99.90;;;;;;4970284;28;20138;-33
2023/11/25 09:29:50;;;;;;;1.40;1.30;;;1.00;99.90;;;;;;4967920;28;20035;-34
2023/11/25 09:32:15;;;;;;;2.30;2.10;;;1.00;99.90;;;;;;4965147;28;20070;-33
2023/11/25 09:34:41;;;;;;;4.70;2.15;;;1.00;99.90;;;;;;4967012;28;20034;-32
2023/11/25 09:37:11;;;;;;;2.53;1.77;;;1.10;99.90;;;;;;4967099;28;20023;-32
2023/11/25 09:39:37;;;;;;;0.88;0.88;;;1.10;99.90;;;;;;4962520;28;20043;-34
2023/11/25 09:42:03;;;;;;;1.88;1.70;;;1.10;99.90;;;;;;4962540;28;20031;-34
2023/11/25 09:44:30;;;;;;;4.03;1.63;;;1.10;99.90;;;;;;4968009;28;20114;-31
2023/11/25 09:46:56;;;;;;;5.60;1.63;;;1.00;99.90;;;;;;4965635;28;20034;-32
2023/11/25 09:49:22;;;;;;;1.38;1.38;;;1.10;99.90;;;;;;4965390;28;20034;-32
2023/11/25 09:51:48;;;;;;;1.20;1.10;;;1.00;99.90;;;;;;4966746;28;20050;-34
2023/11/25 09:54:22;;;;;;;1.33;1.20;;;1.10;99.90;;;;;;4965161;28;20027;-36
2023/11/25 09:56:50;;;;;;;1.40;1.35;;;1.10;99.90;;;;;;4967438;28;20043;-32
2023/11/25 09:59:16;;;;;;;1.80;1.70;;;1.10;99.90;;;;;;4968204;28;20138;-33
2023/11/25 10:01:42;;;;;;;2.25;1.33;;;1.10;99.90;;;;;;4964843;28;20505;-32
2023/11/25 10:04:11;;;;;;;1.13;1.13;;;1.20;99.90;;;;;;4965949;28;20065;-33
2023/11/25 10:06:37;;;;;;;2.40;1.63;;;1.20;99.90;;;;;;4966935;28;20476;-32
2023/11/25 10:09:03;;;;;;;1.70;1.60;;;1.20;99.90;;;;;;4965982;28;20042;-34
2023/11/25 10:11:32;;;;;;;3.13;1.33;;;1.20;99.90;;;;;;4964826;28;20027;-33
2023/11/25 10:13:58;;;;;;;2.75;1.75;;;1.20;99.90;;;;;;4965282;28;20030;-32
2023/11/25 10:16:31;;;;;;;4.53;2.42;;;1.30;99.90;;;;;;4966437;28;20042;-32
2023/11/25 10:18:57;;;;;;;3.63;1.80;;;1.30;99.90;;;;;;4962951;28;20046;-33
2023/11/25 10:21:22;;;;;;;1.15;1.15;;;1.30;99.90;;;;;;4968581;28;20027;-33
2023/11/25 10:23:54;;;;;;;1.52;1.42;;;1.40;99.90;;;;;;4969341;28;20396;-33
2023/11/25 10:26:20;;;;;;;1.10;1.08;;;1.40;99.90;;;;;;4970456;28;20060;-33
2023/11/25 10:28:46;;;;;;;1.23;1.23;;;1.40;99.90;;;;;;4968235;28;20031;-33
2023/11/25 10:31:16;;;;;;;1.50;1.45;;;1.40;99.90;;;;;;4969258;28;20592;-39
2023/11/25 10:33:42;;;;;;;2.20;1.60;;;1.40;99.90;;;;;;4968812;28;20027;-41
2023/11/25 10:36:10;;;;;;;1.25;1.10;;;1.50;99.90;;;;;;4970327;28;20049;-35
2023/11/25 10:38:39;;;;;;;3.80;1.88;;;1.50;99.90;;;;;;4964267;28;20031;-40
2023/11/25 10:41:05;;;;;;;2.83;1.63;;;1.40;99.90;;;;;;4965431;28;20019;-35
2023/11/25 10:43:32;;;;;;;2.45;2.03;;;1.40;99.90;;;;;;4971596;28;20043;-36
2023/11/25 10:46:09;;;;;;;2.60;1.85;;;1.40;99.90;;;;;;4967463;28;20054;-40
2023/11/25 10:48:37;;;;;;;2.55;1.85;;;1.50;99.90;;;;;;4966879;28;20501;-42
2023/11/25 10:51:03;;;;;;;1.88;1.50;;;1.50;99.90;;;;;;4966005;28;20544;-41
2023/11/25 10:53:30;;;;;;;1.05;1.05;;;1.50;99.90;;;;;;4967002;28;20380;-40
2023/11/25 10:55:58;;;;;;;1.38;1.38;;;1.50;99.90;;;;;;4970303;28;20496;-40
2023/11/25 10:58:29;;;;;;;3.17;2.65;;;1.50;99.90;;;;;;4969103;28;20097;-40
2023/11/25 11:00:56;;;;;;;1.60;1.50;;;1.50;99.90;;;;;;4969325;28;20034;-37
2023/11/25 11:03:35;;;;;;;1.67;1.58;;;1.40;99.90;;;;;;4969745;28;20018;-37
2023/11/25 11:06:08;;;;;;;1.27;1.27;;;1.50;99.90;;;;;;4967385;28;20046;-40
2023/11/25 11:08:41;;;;;;;2.47;1.40;;;1.50;99.90;;;;;;4944471;28;20035;-38
2023/11/25 11:11:20;;;;;;;3.88;3.20;;;1.50;99.90;;;;;;4964309;28;20031;-41
2023/11/25 11:13:58;;;;;;;4.05;2.42;;;1.50;99.90;;;;;;4968300;28;20503;-40
2023/11/25 11:16:37;;;;;;;3.35;2.53;;;1.60;99.90;;;;;;4967325;28;20031;-40
2023/11/25 11:19:03;;;;;;;5.07;3.92;;;1.60;99.90;;;;;;4964976;28;20030;-40
2023/11/25 11:21:36;;;;;;;2.22;2.03;;;1.60;99.90;;;;;;4970429;28;20077;-34
2023/11/25 11:24:02;;;;;;;2.65;2.50;;;1.70;99.90;;;;;;4972058;28;20674;-40
2023/11/25 11:26:43;;;;;;;3.30;3.05;;;1.70;99.90;;;;;;4964727;28;20096;-39
2023/11/25 11:29:19;;;;;;;6.55;3.33;;;1.70;99.90;;;;;;4962619;28;20034;-38
2023/11/25 11:32:01;;;;;;;6.68;2.45;;;1.70;99.90;;;;;;4967142;28;20054;-38
2023/11/25 11:34:35;;;;;;;3.70;2.90;;;1.70;99.90;;;;;;4964574;28;20560;-38
2023/11/25 11:37:01;;;;;;;2.53;2.28;;;1.70;99.90;;;;;;4967917;28;20065;-39
2023/11/25 11:39:52;;;;;;;2.17;1.98;;;1.70;99.90;;;;;;4965721;28;20027;-37
2023/11/25 11:42:32;;;;;;;5.05;2.75;;;1.70;99.90;;;;;;4965859;28;20031;-37
2023/11/25 11:45:21;;;;;;;1.65;1.40;;;1.80;99.90;;;;;;4964886;28;20674;-39
2023/11/25 11:47:57;;;;;;;3.72;2.70;;;1.80;99.90;;;;;;4965783;28;20547;-35
2023/11/25 11:50:27;;;;;;;6.10;2.50;;;1.90;99.90;;;;;;4964736;28;20031;-38
2023/11/25 11:53:02;;;;;;;2.17;1.95;;;2.00;99.90;;;;;;4967166;28;20432;-35
2023/11/25 11:55:38;;;;;;;3.65;2.03;;;2.10;99.90;;;;;;4965793;28;20072;-39
2023/11/25 11:58:09;;;;;;;2.15;1.90;;;2.20;99.90;;;;;;4966388;28;20038;-36
2023/11/25 12:00:53;;;;;;;3.22;1.95;;;2.30;99.90;;;;;;4967742;28;20489;-38
2023/11/25 12:03:19;;;;;;;1.90;1.80;;;2.40;99.90;;;;;;4965979;28;20492;-38
2023/11/25 12:05:45;;;;;;;3.25;2.17;;;2.50;99.90;;;;;;4967132;28;20057;-39
2023/11/25 12:08:11;;;;;;;1.88;1.52;;;2.60;99.90;;;;;;4965936;28;20062;-36
2023/11/25 12:10:38;;;;;;;5.78;2.00;;;2.60;99.90;;;;;;4966440;28;20105;-39
2023/11/25 12:13:04;;;;;;;5.75;2.13;;;2.60;99.90;;;;;;4963981;28;20056;-37
2023/11/25 12:15:31;;;;;;;2.28;2.05;;;2.60;99.90;;;;;;4968499;28;20058;-36
2023/11/25 12:17:57;;;;;;;2.08;1.90;;;2.60;99.90;;;;;;4962661;28;20028;-39
2023/11/25 12:20:26;;;;;;;4.97;3.40;;;2.60;99.90;;;;;;4966330;28;20031;-36
2023/11/25 12:22:52;;;;;;;3.92;2.15;;;2.60;99.90;;;;;;4965350;28;20030;-37
2023/11/25 12:25:19;;;;;;;7.32;2.22;;;2.50;99.90;;;;;;4968005;28;20035;-39
2023/11/25 12:28:20;;;;;;;2.65;1.50;;;2.50;99.90;;;;;;4964154;28;20046;-39
2023/11/25 12:30:45;;;;;;;3.45;2.20;;;2.60;99.90;;;;;;4964321;28;20078;-37
2023/11/25 12:33:11;;;;;;;2.75;1.70;;;2.60;99.90;;;;;;4968549;28;20416;-39
2023/11/25 12:35:41;;;;;;;4.60;2.30;;;2.60;99.90;;;;;;4967441;28;20116;-38
2023/11/25 12:38:07;;;;;;;1.52;1.42;;;2.50;99.90;;;;;;4967763;28;20070;-31
2023/11/25 12:40:34;;;;;;;1.40;1.30;;;2.60;99.90;;;;;;4966970;28;20030;-31
2023/11/25 12:43:02;;;;;;;3.63;1.50;;;2.70;99.90;;;;;;4968840;28;20039;-33
2023/11/25 12:45:31;;;;;;;2.65;1.20;;;2.80;99.90;;;;;;4966416;28;20361;-31
2023/11/25 12:47:57;;;;;;;;;;;2.90;99.90;;;;;;4967562;28;20125;-31
2023/11/25 12:50:23;;;;;;;3.40;1.42;;;2.90;99.90;;;;;;4967406;28;19917;-33
2023/11/25 12:53:05;;;;;;;1.33;1.27;;;2.80;99.90;;;;;;4967641;28;20501;-33
2023/11/25 12:55:44;;;;;;;3.45;1.40;;;2.80;99.90;;;;;;4965058;28;20066;-31
2023/11/25 12:58:12;;;;;;;1.20;1.20;;;2.70;99.90;;;;;;4968858;28;20121;-34